Time;durP1;ratioP1;P1;durP2;ratioP2;P2;SDS_P1;SDS_P2;PMS_P1;PMS_P2;Temp;Humidity;BMP_temperature;BMP_pressure;BME280_temperature;BME280_humidity;BME280_pressure;Samples;Min_cycle;Max_cycle;Signal;HPM_P1;HPM_P2
2021/04/02 00:01:23;;;;;;;1.92;0.40;;;;;;;18.79;49.99;102819.56;6230341;23;20040;-78
2021/04/02 00:04:07;;;;;;;0.68;0.52;;;;;;;18.79;49.85;102821.28;6257335;22;20026;-79
2021/04/02 00:06:35;;;;;;;0.95;0.38;;;;;;;18.80;49.78;102823.03;6222443;22;20103;-80
2021/04/02 00:09:03;;;;;;;0.90;0.43;;;;;;;18.79;49.86;102829.09;6295156;22;20008;-78
2021/04/02 00:11:28;;;;;;;0.80;0.50;;;;;;;18.78;49.95;102827.34;6270078;22;20063;-78
2021/04/02 00:13:55;;;;;;;0.80;0.40;;;;;;;18.78;49.96;102827.34;6244247;22;20007;-78
2021/04/02 00:16:21;;;;;;;1.33;0.50;;;;;;;18.76;49.84;102818.59;6270046;22;20016;-79
2021/04/02 00:19:07;;;;;;;0.80;0.40;;;;;;;18.77;49.97;102817.72;6253853;22;20068;-78
2021/04/02 00:21:34;;;;;;;0.82;0.40;;;;;;;18.77;49.84;102825.56;6270068;22;20493;-79
2021/04/02 00:24:06;;;;;;;0.68;0.50;;;;;;;18.76;50.02;102827.28;6264403;22;20042;-78
2021/04/02 00:26:32;;;;;;;1.63;0.57;;;;;;;18.76;49.77;102824.69;6268775;22;20011;-79
2021/04/02 00:28:59;;;;;;;1.33;0.50;;;;;;;18.75;49.74;102824.66;6272203;22;20008;-78
2021/04/02 00:31:33;;;;;;;1.17;0.40;;;;;;;18.74;49.94;102822.91;6264223;22;20027;-78
2021/04/02 00:34:00;;;;;;;1.02;0.40;;;;;;;18.73;49.68;102821.13;6267694;23;20458;-78
2021/04/02 00:39:50;;;;;;;1.25;0.50;;;;;;;18.71;49.91;102821.13;6264562;23;20510;-78
2021/04/02 00:42:18;;;;;;;1.42;0.55;;;;;;;18.74;49.90;102817.69;6280718;22;20046;-78
2021/04/02 00:44:43;;;;;;;1.05;0.40;;;;;;;18.70;50.09;102817.66;6290449;22;20054;-78
2021/04/02 00:47:10;;;;;;;1.30;0.40;;;;;;;18.70;49.91;102817.66;6263324;22;20008;-78
2021/04/02 00:49:48;;;;;;;1.08;0.40;;;;;;;18.69;49.79;102815.00;6293297;22;20308;-78
2021/04/02 00:52:16;;;;;;;1.17;0.50;;;;;;;18.71;49.55;102821.13;6299572;22;19984;-78
2021/04/02 00:54:41;;;;;;;0.60;0.50;;;;;;;18.71;49.85;102819.38;6300214;22;20027;-78
2021/04/02 00:57:14;;;;;;;0.50;0.30;;;;;;;18.68;49.75;102816.75;6273975;22;20004;-78
2021/04/02 00:59:42;;;;;;;1.50;0.40;;;;;;;18.70;50.13;102824.56;6300283;22;20078;-77
2021/04/02 01:02:11;;;;;;;0.82;0.40;;;;;;;18.69;49.93;102818.47;6272508;22;20019;-78
2021/04/02 01:04:38;;;;;;;0.90;0.40;;;;;;;18.68;49.87;102819.34;6300610;22;20028;-78
2021/04/02 01:07:06;;;;;;;0.30;0.30;;;;;;;18.68;49.80;102821.97;6300589;22;20003;-78
2021/04/02 01:09:32;;;;;;;0.75;0.40;;;;;;;18.69;49.93;102822.81;6300106;22;20018;-78
2021/04/02 01:11:57;;;;;;;0.68;0.43;;;;;;;18.67;49.79;102820.19;6273069;22;20003;-78
2021/04/02 01:14:23;;;;;;;1.63;0.50;;;;;;;18.65;49.87;102824.50;6273664;22;19995;-78
2021/04/02 01:16:56;;;;;;;0.85;0.45;;;;;;;18.66;49.74;102825.34;6299485;22;20000;-78
2021/04/02 01:19:33;;;;;;;0.75;0.40;;;;;;;18.68;49.72;102829.78;6300377;22;20065;-78
2021/04/02 01:22:06;;;;;;;0.55;0.40;;;;;;;18.65;49.86;102828.84;6299938;22;19999;-78
2021/04/02 01:25:15;;;;;;;0.97;0.50;;;;;;;18.64;49.83;102833.19;6273754;22;20075;-78
2021/04/02 01:28:06;;;;;;;1.30;0.50;;;;;;;18.67;49.87;102829.75;6225224;22;20516;-78
2021/04/02 01:30:33;;;;;;;0.65;0.40;;;;;;;18.67;49.88;102835.84;6270687;22;20008;-78
2021/04/02 01:33:01;;;;;;;1.27;0.43;;;;;;;18.62;49.82;102829.66;6240475;23;19998;-78
2021/04/02 01:35:36;;;;;;;0.95;0.50;;;;;;;18.64;49.78;102832.28;6269949;23;20431;-78
2021/04/02 01:38:29;;;;;;;1.60;0.50;;;;;;;18.64;49.75;102833.19;6270193;23;20062;-78
2021/04/02 01:41:04;;;;;;;0.90;0.50;;;;;;;18.63;49.72;102836.63;6270490;23;19992;-78
2021/04/02 01:43:43;;;;;;;1.33;0.40;;;;;;;18.64;49.90;102843.63;6221408;23;20026;-78
2021/04/02 01:46:10;;;;;;;0.73;0.40;;;;;;;18.62;49.79;102841.84;6243947;23;20004;-79
2021/04/02 01:48:38;;;;;;;0.75;0.50;;;;;;;18.62;49.74;102837.50;6272369;23;20034;-78
2021/04/02 01:51:13;;;;;;;0.88;0.43;;;;;;;18.60;49.74;102836.59;6243273;23;20083;-78
2021/04/02 01:53:44;;;;;;;1.02;0.47;;;;;;;18.61;49.53;102838.31;6247627;23;20030;-78
2021/04/02 01:56:20;;;;;;;1.00;0.50;;;;;;;18.62;49.85;102839.22;6271124;23;20024;-77
2021/04/02 01:58:49;;;;;;;0.60;0.40;;;;;;;18.61;49.70;102838.31;6239175;23;20513;-78
2021/04/02 02:01:24;;;;;;;0.93;0.40;;;;;;;18.61;49.63;102838.31;6237717;23;20087;-78
2021/04/02 02:03:54;;;;;;;0.70;0.38;;;;;;;18.60;49.76;102841.78;6260012;23;20055;-79
2021/04/02 02:06:31;;;;;;;0.60;0.40;;;;;;;18.58;49.84;102835.66;6237878;23;20000;-78
2021/04/02 02:09:00;;;;;;;0.80;0.35;;;;;;;18.59;50.06;102842.63;6265625;23;20000;-78
2021/04/02 02:11:27;;;;;;;0.85;0.40;;;;;;;18.57;49.58;102836.50;6264464;23;20004;-78
2021/04/02 02:13:56;;;;;;;0.65;0.40;;;;;;;18.57;49.95;102833.03;6265257;23;20118;-78
2021/04/02 02:16:29;;;;;;;0.57;0.30;;;;;;;18.56;49.65;102837.38;6267137;23;20000;-78
2021/04/02 02:19:03;;;;;;;1.38;0.52;;;;;;;18.56;49.70;102837.38;6235451;23;20071;-78
2021/04/02 02:21:29;;;;;;;0.73;0.40;;;;;;;18.56;49.86;102836.50;6236612;23;20000;-78
2021/04/02 02:23:56;;;;;;;0.50;0.30;;;;;;;18.53;49.99;102846.84;6263448;23;19997;-78
2021/04/02 02:26:24;;;;;;;0.93;0.40;;;;;;;18.54;49.85;102838.19;6268278;22;20030;-77
2021/04/02 02:28:52;;;;;;;0.93;0.40;;;;;;;18.56;49.72;102836.50;6240714;22;20102;-79
2021/04/02 02:31:29;;;;;;;0.60;0.40;;;;;;;18.56;49.87;102836.50;6252113;22;20028;-78
2021/04/02 02:33:55;;;;;;;1.00;0.40;;;;;;;18.52;49.73;102838.16;6198968;23;20009;-78
2021/04/02 02:36:32;;;;;;;0.60;0.40;;;;;;;18.55;49.81;102839.94;6187928;23;20004;-78
2021/04/02 02:39:09;;;;;;;1.05;0.30;;;;;;;18.52;49.89;102832.94;6199599;23;20325;-77
2021/04/02 02:41:55;;;;;;;0.50;0.40;;;;;;;18.53;49.83;102839.94;6176567;23;20005;-77
2021/04/02 02:44:22;;;;;;;1.77;0.63;;;;;;;18.50;49.73;102832.91;6199273;23;20032;-78
2021/04/02 02:46:49;;;;;;;0.55;0.40;;;;;;;18.51;49.72;102831.22;6201291;22;20021;-77
2021/04/02 02:49:17;;;;;;;0.52;0.30;;;;;;;18.49;49.79;102835.50;6250739;23;20028;-77
2021/04/02 02:51:47;;;;;;;0.80;0.40;;;;;;;18.52;49.88;102832.06;6230245;23;20069;-77
2021/04/02 02:54:20;;;;;;;0.80;0.32;;;;;;;18.49;49.96;102833.78;6232502;23;19993;-78
2021/04/02 02:56:53;;;;;;;1.20;0.50;;;;;;;18.49;50.00;102830.31;6238220;22;20019;-78
2021/04/02 02:59:23;;;;;;;0.90;0.40;;;;;;;18.48;49.58;102836.34;6235567;23;20020;-78
2021/04/02 03:04:31;;;;;;;0.43;0.30;;;;;;;18.49;49.82;102825.09;6266068;22;20016;-78
2021/04/02 03:07:01;;;;;;;0.65;0.40;;;;;;;18.49;49.89;102830.31;6239377;23;20035;-78
2021/04/02 03:09:37;;;;;;;1.17;0.47;;;;;;;18.48;49.72;102825.91;6267517;23;20027;-78
2021/04/02 03:12:06;;;;;;;1.10;0.35;;;;;;;18.46;49.84;102818.06;6240871;23;20022;-78
2021/04/02 03:14:36;;;;;;;1.52;0.50;;;;;;;18.45;49.83;102813.72;6216207;23;20004;-77
2021/04/02 03:17:05;;;;;;;0.90;0.35;;;;;;;18.44;49.90;102804.16;6211161;23;20008;-78
2021/04/02 03:19:41;;;;;;;0.77;0.40;;;;;;;18.44;49.71;102809.38;6266377;23;20047;-77
2021/04/02 03:22:09;;;;;;;1.10;0.35;;;;;;;18.44;49.95;102808.47;6265176;23;20007;-78
2021/04/02 03:24:39;;;;;;;0.98;0.40;;;;;;;18.44;49.93;102806.75;6266526;23;20064;-78
2021/04/02 03:27:07;;;;;;;0.40;0.30;;;;;;;18.45;49.80;102805.03;6239985;23;20011;-76
2021/04/02 03:29:33;;;;;;;0.55;0.30;;;;;;;18.45;49.71;102812.84;6217652;23;20004;-77
2021/04/02 03:32:04;;;;;;;1.67;0.50;;;;;;;18.44;49.82;102811.06;6243408;23;20004;-78
2021/04/02 03:34:43;;;;;;;1.30;0.40;;;;;;;18.44;49.81;102811.06;6243549;23;19996;-77
2021/04/02 03:37:11;;;;;;;1.02;0.47;;;;;;;18.43;49.52;102811.94;6241415;23;20005;-78
2021/04/02 03:39:41;;;;;;;0.77;0.40;;;;;;;18.42;49.86;102810.16;6187142;23;20060;-77
2021/04/02 03:42:11;;;;;;;0.70;0.30;;;;;;;18.42;49.75;102811.06;6237064;23;20422;-77
2021/04/02 03:44:45;;;;;;;0.47;0.30;;;;;;;18.41;49.77;102809.28;6238100;23;20083;-77
2021/04/02 03:47:21;;;;;;;0.88;0.32;;;;;;;18.41;49.80;102806.69;6213310;23;20028;-77
2021/04/02 03:49:48;;;;;;;0.70;0.38;;;;;;;18.42;49.75;102804.94;6209661;23;20059;-78
2021/04/02 03:52:18;;;;;;;0.63;0.30;;;;;;;18.40;49.68;102798.81;6200611;23;20337;-76
2021/04/02 03:54:50;;;;;;;0.85;0.40;;;;;;;18.40;49.80;102804.94;6237420;23;20012;-77
2021/04/02 03:57:56;;;;;;;0.65;0.38;;;;;;;18.41;49.87;102809.28;6237086;23;20001;-78
2021/04/02 04:00:59;;;;;;;1.00;0.40;;;;;;;18.40;49.85;102807.53;6212920;23;20064;-78
2021/04/02 04:03:27;;;;;;;0.70;0.30;;;;;;;18.38;49.60;102806.63;6236441;23;20027;-78
2021/04/02 04:05:59;;;;;;;0.52;0.38;;;;;;;18.39;49.78;102813.59;6238785;23;20074;-77
2021/04/02 04:11:04;;;;;;;1.08;0.40;;;;;;;18.38;49.71;102813.56;6300810;22;20530;-78
2021/04/02 04:13:37;;;;;;;0.50;0.30;;;;;;;18.38;49.44;102816.16;6253548;22;20011;-78
2021/04/02 04:16:05;;;;;;;2.05;0.47;;;;;;;18.40;49.75;102817.06;6270495;22;20373;-77
2021/04/02 04:18:41;;;;;;;0.40;0.30;;;;;;;18.39;49.55;102817.94;6295984;22;20323;-77
2021/04/02 04:21:10;;;;;;;0.60;0.32;;;;;;;18.36;49.72;102810.94;6300269;22;20006;-78
2021/04/02 04:23:46;;;;;;;0.98;0.30;;;;;;;18.37;49.60;102814.41;6265180;22;20004;-78
2021/04/02 04:26:25;;;;;;;0.82;0.40;;;;;;;18.37;49.69;102811.81;6244892;23;20063;-78
2021/04/02 04:29:01;;;;;;;0.65;0.30;;;;;;;18.37;49.70;102811.81;6243473;23;19998;-77
2021/04/02 04:34:50;;;;;;;0.43;0.20;;;;;;;18.34;49.63;102816.97;6274960;22;20035;-77
2021/04/02 04:37:19;;;;;;;1.10;0.50;;;;;;;18.35;49.63;102813.50;6249582;22;20071;-78
2021/04/02 04:39:53;;;;;;;0.93;0.38;;;;;;;18.35;49.96;102817.00;6249096;22;20016;-78
2021/04/02 04:42:26;;;;;;;0.75;0.30;;;;;;;18.35;49.77;102809.16;6297191;22;20026;-78
2021/04/02 04:45:09;;;;;;;0.70;0.30;;;;;;;18.34;49.56;102814.38;6251013;22;20020;-78
2021/04/02 04:47:53;;;;;;;1.30;0.40;;;;;;;18.35;49.73;102813.50;6206608;23;20012;-78
2021/04/02 04:50:26;;;;;;;0.82;0.32;;;;;;;18.36;49.79;102812.69;6231593;23;20008;-79
2021/04/02 04:53:03;;;;;;;0.40;0.28;;;;;;;18.37;49.58;102827.44;6233670;23;20428;-78
2021/04/02 04:55:35;;;;;;;0.57;0.30;;;;;;;18.38;49.75;102829.19;6232540;23;20447;-78
2021/04/02 04:58:03;;;;;;;1.02;0.43;;;;;;;18.36;49.67;102821.38;6203463;23;20065;-78
2021/04/02 05:00:50;;;;;;;0.45;0.30;;;;;;;18.36;49.52;102826.59;6202936;23;20015;-78
2021/04/02 05:03:19;;;;;;;0.98;0.50;;;;;;;18.34;49.70;102825.69;6204352;23;20012;-77
2021/04/02 05:05:47;;;;;;;1.55;0.43;;;;;;;18.35;49.69;102829.16;6231135;23;20119;-78
2021/04/02 05:08:20;;;;;;;1.30;0.30;;;;;;;18.35;49.69;102830.03;6231045;23;20007;-78
2021/04/02 05:10:49;;;;;;;0.77;0.40;;;;;;;18.36;49.52;102834.41;6224061;23;20009;-78
2021/04/02 05:13:19;;;;;;;0.93;0.40;;;;;;;18.34;49.57;102830.00;6156300;23;20008;-78
2021/04/02 05:15:46;;;;;;;0.73;0.30;;;;;;;18.33;49.35;102829.13;6206991;23;20429;-78
2021/04/02 05:18:35;;;;;;;0.63;0.32;;;;;;;18.33;49.74;102825.63;6230190;23;20032;-78
2021/04/02 05:21:01;;;;;;;0.40;0.20;;;;;;;18.34;49.57;102830.00;6212639;23;20008;-77
2021/04/02 05:23:27;;;;;;;0.70;0.30;;;;;;;18.33;49.76;102829.13;6182293;23;20012;-78
2021/04/02 05:25:53;;;;;;;1.10;0.50;;;;;;;18.34;49.55;102828.28;6231390;23;20004;-78
2021/04/02 05:28:20;;;;;;;0.90;0.50;;;;;;;18.36;49.50;102829.19;6230555;23;20011;-78
2021/04/02 05:30:46;;;;;;;0.50;0.35;;;;;;;18.35;49.73;102826.53;6202297;23;20019;-77
2021/04/02 05:33:18;;;;;;;1.00;0.40;;;;;;;18.34;49.49;102827.41;6172756;23;20052;-78
2021/04/02 05:35:45;;;;;;;0.30;0.30;;;;;;;18.36;49.58;102823.09;6197614;23;20005;-78
2021/04/02 05:38:10;;;;;;;0.88;0.40;;;;;;;18.34;49.43;102830.88;6196047;23;20447;-78
2021/04/02 05:40:38;;;;;;;0.90;0.40;;;;;;;18.36;49.50;102830.94;6148321;23;20001;-78
2021/04/02 05:43:34;;;;;;;0.57;0.30;;;;;;;18.37;49.48;102833.53;6188231;23;20493;-77
2021/04/02 05:46:01;;;;;;;0.80;0.32;;;;;;;18.37;49.68;102837.88;6236505;23;20024;-78
2021/04/02 05:48:32;;;;;;;0.65;0.32;;;;;;;18.35;49.38;102837.84;6234973;23;20028;-78
2021/04/02 05:51:00;;;;;;;0.70;0.30;;;;;;;18.34;49.49;102841.31;6236254;23;20408;-78
2021/04/02 05:53:29;;;;;;;1.05;0.40;;;;;;;18.36;49.41;102844.81;6240574;23;20012;-77
2021/04/02 05:55:57;;;;;;;1.17;0.50;;;;;;;18.34;49.13;102836.09;6241506;22;19993;-77
2021/04/02 05:58:49;;;;;;;10.73;2.40;;;;;;;18.47;49.76;102837.22;6273207;22;20045;-77
2021/04/02 06:01:15;;;;;;;13.50;2.10;;;;;;;18.59;49.75;102840.03;6333854;22;20043;-78
2021/04/02 06:03:42;;;;;;;8.95;1.85;;;;;;;18.63;49.93;102833.16;6305108;22;20003;-77
2021/04/02 06:06:13;;;;;;;9.30;2.03;;;;;;;18.67;49.96;102835.84;6301179;22;20003;-78
2021/04/02 06:08:59;;;;;;;9.88;2.40;;;;;;;18.74;49.86;102844.63;6299981;22;20000;-78
2021/04/02 06:11:26;;;;;;;7.65;1.90;;;;;;;18.76;49.74;102835.13;6273289;22;20018;-78
2021/04/02 06:13:52;;;;;;;7.57;1.83;;;;;;;18.83;49.74;102844.81;6323571;22;20007;-78
2021/04/02 06:16:20;;;;;;;5.03;1.65;;;;;;;18.86;49.67;102854.47;6302565;22;20011;-77
2021/04/02 06:19:10;;;;;;;5.70;1.42;;;;;;;18.86;49.58;102846.63;6257834;22;20037;-77
2021/04/02 06:21:58;;;;;;;6.03;1.60;;;;;;;18.91;49.52;102852.78;6327473;22;20015;-81
2021/04/02 06:24:51;;;;;;;6.43;1.45;;;;;;;18.95;49.56;102854.59;6302819;22;20003;-77
2021/04/02 06:27:27;;;;;;;3.88;1.48;;;;;;;18.99;49.16;102853.81;6301272;22;20304;-78
2021/04/02 06:30:13;;;;;;;5.15;1.23;;;;;;;19.00;49.39;102850.34;6300715;22;20011;-79
2021/04/02 06:32:54;;;;;;;6.10;1.30;;;;;;;19.08;49.31;102861.78;6298294;22;20035;-79
2021/04/02 06:35:25;;;;;;;6.03;1.50;;;;;;;19.16;49.28;102866.22;6267657;22;20489;-78
2021/04/02 06:37:57;;;;;;;7.90;1.65;;;;;;;19.18;49.41;102868.00;6266441;22;20026;-80
2021/04/02 06:40:24;;;;;;;6.82;1.45;;;;;;;19.19;49.37;102868.91;6267376;22;20003;-78
2021/04/02 06:43:09;;;;;;;2.58;1.10;;;;;;;19.19;49.44;102875.00;6242355;22;20004;-79
2021/04/02 06:45:39;;;;;;;5.63;1.20;;;;;;;19.21;49.20;102872.44;6232058;23;20008;-83
2021/04/02 06:48:15;;;;;;;4.97;1.23;;;;;;;19.20;49.31;102871.53;6232277;23;20123;-79
2021/04/02 06:53:12;;;;;;;3.30;1.35;;;;;;;19.18;49.48;102867.16;6233458;22;20024;-77
2021/04/02 06:55:39;;;;;;;3.75;1.30;;;;;;;19.15;49.70;102873.19;6207634;23;20004;-81
2021/04/02 06:58:09;;;;;;;4.22;1.40;;;;;;;19.15;49.62;102875.81;6180876;23;20020;-80
2021/04/02 07:00:37;;;;;;;2.85;1.10;;;;;;;19.16;49.75;102877.53;6205090;23;20055;-79
2021/04/02 07:03:08;;;;;;;7.03;1.42;;;;;;;19.15;49.71;102882.75;6205125;23;20031;-78
2021/04/02 07:05:34;;;;;;;5.60;1.88;;;;;;;19.13;49.73;102887.94;6233137;23;19984;-81
2021/04/02 07:08:06;;;;;;;3.92;1.35;;;;;;;19.14;49.64;102897.56;6232104;23;20060;-86
2021/04/02 07:13:28;;;;;;;6.93;1.45;;;;;;;19.18;49.61;102895.84;6237418;23;20024;-79
2021/04/02 07:16:03;;;;;;;4.28;1.23;;;;;;;19.21;49.71;102911.59;6236536;23;20007;-82
2021/04/02 07:18:29;;;;;;;6.22;1.35;;;;;;;19.19;49.68;102906.31;6209609;23;20012;-86
2021/04/02 07:20:58;;;;;;;5.00;1.15;;;;;;;19.24;49.56;102911.63;6204620;23;20005;-78
2021/04/02 07:23:26;;;;;;;2.50;1.10;;;;;;;19.23;49.55;102904.66;6232845;23;20011;-78
2021/04/02 07:25:55;;;;;;;6.10;2.10;;;;;;;19.25;49.54;102910.75;6234287;23;20016;-85
2021/04/02 07:28:24;;;;;;;2.85;1.30;;;;;;;19.28;49.29;102916.03;6233346;23;20000;-85
2021/04/02 07:30:50;;;;;;;3.90;1.02;;;;;;;19.30;49.26;102907.38;6182412;23;20120;-81
2021/04/02 07:33:17;;;;;;;3.40;1.17;;;;;;;19.32;49.32;102912.63;6205908;23;20084;-79
2021/04/02 07:36:01;;;;;;;7.25;1.33;;;;;;;19.29;49.62;102909.94;6206422;23;20016;-78
2021/04/02 07:38:33;;;;;;;2.47;1.30;;;;;;;19.28;49.49;102916.03;6207501;23;20443;-81
2021/04/02 07:41:12;;;;;;;6.53;1.25;;;;;;;19.27;49.33;102915.16;6206300;23;20012;-78
2021/04/02 07:43:54;;;;;;;3.35;1.45;;;;;;;19.28;49.54;102921.25;6233132;23;20001;-83
2021/04/02 07:46:27;;;;;;;4.20;1.10;;;;;;;19.28;49.31;102924.75;6236006;23;20007;-79
2021/04/02 07:49:00;;;;;;;;;;;;;;;19.30;49.53;102930.00;6233651;23;20009;-79
2021/04/02 07:52:00;;;;;;;4.60;1.48;;;;;;;19.29;49.44;102925.63;6243939;22;19911;-79
2021/04/02 07:54:41;;;;;;;7.07;1.00;;;;;;;19.24;49.56;102922.06;6257671;23;20034;-79
2021/04/02 07:57:27;;;;;;;3.88;1.02;;;;;;;19.25;49.57;102921.19;6238961;23;20008;-79
2021/04/02 07:59:52;;;;;;;3.58;1.05;;;;;;;19.28;49.57;102923.88;6263886;23;20026;-78
2021/04/02 08:02:37;;;;;;;12.15;1.48;;;;;;;19.25;49.48;102914.25;6237515;23;20009;-80
2021/04/02 08:05:13;;;;;;;3.75;1.10;;;;;;;19.23;49.65;102920.31;6268057;22;20015;-78
2021/04/02 08:07:47;;;;;;;3.47;1.30;;;;;;;19.21;49.48;102925.50;6268652;22;19988;-80
2021/04/02 08:10:21;;;;;;;3.53;1.20;;;;;;;19.20;49.52;102922.84;6267075;23;20012;-78
2021/04/02 08:13:15;;;;;;;4.70;1.10;;;;;;;19.23;49.43;102925.53;6267521;23;20015;-80
2021/04/02 08:15:40;;;;;;;;;;;;;;;19.23;49.34;102930.75;6237864;23;20024;-79
2021/04/02 08:18:17;;;;;;;3.80;1.15;;;;;;;19.23;49.20;102934.25;6273676;22;19918;-79
2021/04/02 08:20:43;;;;;;;4.07;1.30;;;;;;;19.22;49.42;102940.28;6273951;22;20011;-80
2021/04/02 08:23:16;;;;;;;4.70;0.98;;;;;;;19.22;49.31;102936.81;6218306;23;20044;-79
2021/04/02 08:25:43;;;;;;;2.08;1.10;;;;;;;19.19;49.17;102923.72;6241347;23;20003;-79
2021/04/02 08:28:13;;;;;;;5.25;1.10;;;;;;;19.18;49.15;102925.44;6264953;23;20010;-78
2021/04/02 08:30:45;;;;;;;2.75;1.15;;;;;;;19.21;49.45;102924.63;6266566;22;20019;-81
2021/04/02 08:33:11;;;;;;;7.88;1.20;;;;;;;19.21;49.17;102925.50;6266750;22;20466;-82
2021/04/02 08:35:58;;;;;;;2.42;1.10;;;;;;;19.22;49.26;102935.06;6268938;22;20508;-79
2021/04/02 08:38:30;;;;;;;3.17;1.20;;;;;;;19.24;48.91;102935.09;6265526;23;19995;-80
2021/04/02 08:41:15;;;;;;;2.33;1.05;;;;;;;19.30;48.68;102924.78;6265654;23;20016;-79
2021/04/02 08:44:00;;;;;;;4.78;1.20;;;;;;;19.44;48.38;102927.59;6263769;22;20007;-84
2021/04/02 08:46:46;;;;;;;2.83;1.20;;;;;;;19.48;48.11;102935.50;6260231;22;20375;-80
2021/04/02 08:49:16;;;;;;;2.78;1.20;;;;;;;19.45;48.59;102947.66;6286402;22;20004;-81
2021/04/02 08:51:49;;;;;;;3.42;1.00;;;;;;;19.36;48.30;102937.94;6251089;22;20027;-79
2021/04/02 08:54:20;;;;;;;3.07;1.20;;;;;;;19.32;48.40;102949.19;6183719;23;20012;-87
2021/04/02 08:56:49;;;;;;;3.58;1.13;;;;;;;19.32;48.50;102944.81;6182051;23;20240;-83
2021/04/02 08:59:18;;;;;;;2.95;1.00;;;;;;;19.32;48.57;102946.56;6233859;23;20007;-81
2021/04/02 09:01:48;;;;;;;4.22;0.85;;;;;;;19.31;48.38;102942.19;6230318;23;20444;-80
2021/04/02 09:04:16;;;;;;;2.63;0.80;;;;;;;19.30;48.26;102946.53;6232211;23;20004;-81
2021/04/02 09:06:43;;;;;;;2.80;1.08;;;;;;;19.33;48.46;102950.91;6205895;23;20009;-83
2021/04/02 09:09:15;;;;;;;1.92;0.90;;;;;;;19.31;48.48;102942.19;6206125;23;20005;-78
2021/04/02 09:11:43;;;;;;;2.33;0.90;;;;;;;19.31;48.27;102939.56;6203966;23;20004;-79
2021/04/02 09:14:11;;;;;;;3.72;1.02;;;;;;;19.27;48.12;102936.06;6230310;23;19997;-78
2021/04/02 09:16:39;;;;;;;3.15;1.00;;;;;;;19.28;48.45;102944.75;6205246;23;20068;-81
2021/04/02 09:19:07;;;;;;;3.85;1.00;;;;;;;19.27;48.50;102941.28;6232536;23;20084;-79
2021/04/02 09:21:33;;;;;;;3.10;1.00;;;;;;;19.28;47.95;102944.75;6180383;23;20008;-80
2021/04/02 09:23:59;;;;;;;2.92;0.82;;;;;;;19.28;48.25;102935.19;6205341;23;20059;-79
2021/04/02 09:26:25;;;;;;;1.83;0.82;;;;;;;19.30;48.35;102940.44;6228007;23;20421;-79
2021/04/02 09:29:04;;;;;;;1.92;0.80;;;;;;;19.28;48.25;102935.19;6178286;23;20012;-79
2021/04/02 09:31:34;;;;;;;3.00;1.00;;;;;;;19.26;48.14;102936.00;6209605;23;20000;-80
2021/04/02 09:34:03;;;;;;;3.00;0.80;;;;;;;19.25;48.15;102937.75;6205729;23;20028;-79
2021/04/02 09:36:31;;;;;;;5.05;1.00;;;;;;;19.28;48.01;102939.53;6233089;23;20044;-78
2021/04/02 09:39:17;;;;;;;2.08;0.85;;;;;;;19.32;48.17;102941.34;6230015;23;20478;-82
2021/04/02 09:41:58;;;;;;;1.63;0.60;;;;;;;19.34;48.15;102942.25;6231754;23;20005;-78
2021/04/02 09:44:29;;;;;;;1.35;0.70;;;;;;;19.32;47.99;102944.81;6204563;23;20008;-80
2021/04/02 09:47:06;;;;;;;3.67;1.00;;;;;;;19.33;47.92;102932.66;6180056;23;20008;-79
2021/04/02 09:49:36;;;;;;;2.30;1.00;;;;;;;19.38;47.91;102936.22;6222971;23;20043;-84
2021/04/02 09:52:10;;;;;;;2.25;0.90;;;;;;;19.41;47.71;102936.25;6254883;22;20020;-79
2021/04/02 09:54:37;;;;;;;2.15;0.90;;;;;;;19.43;47.65;102926.72;6262033;22;20008;-78
2021/04/02 09:57:08;;;;;;;1.55;0.68;;;;;;;19.41;47.66;102930.19;6260781;22;19997;-88
2021/04/02 09:59:34;;;;;;;2.13;0.80;;;;;;;19.40;47.72;102934.53;6260590;22;20046;-81
2021/04/02 10:01:59;;;;;;;2.10;0.73;;;;;;;19.44;47.64;102936.31;6260573;22;20091;-82
2021/04/02 10:04:26;;;;;;;1.10;0.60;;;;;;;19.46;47.48;102947.66;6259757;22;20079;-82
2021/04/02 10:06:55;;;;;;;1.52;0.70;;;;;;;19.47;47.63;102943.34;6259409;22;20023;-81
2021/04/02 10:09:21;;;;;;;2.10;0.77;;;;;;;19.48;47.58;102950.31;6255005;23;20012;-79
2021/04/02 10:11:48;;;;;;;1.60;0.77;;;;;;;19.46;47.79;102944.16;6256951;22;20008;-84
2021/04/02 10:14:16;;;;;;;2.30;0.70;;;;;;;19.52;47.39;102933.81;6257591;23;20082;-90
2021/04/02 10:16:45;;;;;;;1.23;0.55;;;;;;;19.52;47.29;102929.47;6256083;23;20008;-80
2021/04/02 10:19:16;;;;;;;1.42;0.73;;;;;;;19.53;47.33;102932.97;6252703;23;20011;-79
2021/04/02 10:21:43;;;;;;;2.30;0.60;;;;;;;19.57;47.15;102928.66;6252331;22;20015;-79
2021/04/02 10:24:10;;;;;;;1.98;0.75;;;;;;;19.60;47.22;102931.31;6251120;23;20004;-86
2021/04/02 10:26:36;;;;;;;1.75;0.77;;;;;;;19.54;47.38;102942.56;6254076;22;20347;-80
2021/04/02 10:29:04;;;;;;;2.72;0.63;;;;;;;19.51;47.33;102932.97;6254672;22;20004;-88
2021/04/02 10:31:30;;;;;;;1.95;0.75;;;;;;;19.49;47.36;102944.25;6256079;22;20011;-89
2021/04/02 10:33:57;;;;;;;2.60;0.80;;;;;;;19.42;47.78;102958.03;6256839;22;20000;-85
2021/04/02 10:36:22;;;;;;;1.20;0.70;;;;;;;19.36;47.50;102948.38;6235314;23;20015;-81
2021/04/02 10:38:48;;;;;;;1.13;0.70;;;;;;;19.38;47.57;102951.00;6266858;23;20443;-85
2021/04/02 10:41:14;;;;;;;1.38;0.60;;;;;;;19.35;47.68;102953.56;6268227;23;20004;-82
2021/04/02 10:43:47;;;;;;;2.35;0.70;;;;;;;19.35;47.53;102946.59;6268583;22;20000;-82
2021/04/02 10:46:14;;;;;;;1.95;0.80;;;;;;;19.38;47.49;102951.00;6267224;22;20011;-80
2021/04/02 10:48:40;;;;;;;1.17;0.60;;;;;;;19.35;47.77;102941.38;6237586;23;20036;-81
2021/04/02 10:51:17;;;;;;;1.92;0.80;;;;;;;19.37;47.51;102947.50;6260301;23;20000;-81
2021/04/02 10:53:44;;;;;;;1.38;0.70;;;;;;;19.38;47.58;102956.22;6261245;22;20008;-82
2021/04/02 10:56:10;;;;;;;1.45;0.70;;;;;;;19.36;47.50;102944.88;6265276;22;20027;-80
2021/04/02 10:58:36;;;;;;;2.67;0.70;;;;;;;19.36;47.51;102950.09;6259338;23;20012;-83
2021/04/02 11:01:03;;;;;;;2.33;0.70;;;;;;;19.33;47.52;102946.56;6232185;23;20014;-81
2021/04/02 11:03:31;;;;;;;1.63;0.70;;;;;;;19.34;47.40;102939.63;6260198;22;20004;-85
2021/04/02 11:05:57;;;;;;;1.88;0.70;;;;;;;19.36;47.22;102944.88;6258469;23;20004;-80
2021/04/02 11:08:42;;;;;;;1.63;0.60;;;;;;;19.34;47.40;102947.47;6259679;23;20062;-81
2021/04/02 11:11:08;;;;;;;1.70;0.90;;;;;;;19.31;47.47;102948.31;6256768;23;20030;-80
2021/04/02 11:13:36;;;;;;;0.95;0.60;;;;;;;19.31;47.34;102940.47;6257689;22;20008;-80
2021/04/02 11:16:02;;;;;;;1.73;0.55;;;;;;;19.36;47.28;102935.31;6262406;22;20004;-82
2021/04/02 11:18:28;;;;;;;1.27;0.60;;;;;;;19.43;47.31;102931.94;6254798;23;20062;-80
2021/04/02 11:20:53;;;;;;;1.73;0.88;;;;;;;19.48;47.12;102919.84;6259177;23;20004;-87
2021/04/02 11:23:19;;;;;;;2.13;0.70;;;;;;;19.51;46.99;102924.22;6259540;23;20193;-82
2021/04/02 11:25:45;;;;;;;1.42;0.52;;;;;;;19.48;47.04;102919.84;6255229;23;20008;-83
2021/04/02 11:28:13;;;;;;;1.02;0.60;;;;;;;19.45;47.24;102918.94;6257555;23;20035;-85
2021/04/02 11:30:39;;;;;;;1.77;0.63;;;;;;;19.38;47.14;102931.00;6280334;22;20069;-80
2021/04/02 11:33:05;;;;;;;1.38;0.60;;;;;;;19.31;47.53;102930.03;6231726;23;20024;-85
2021/04/02 11:35:33;;;;;;;1.30;0.57;;;;;;;19.26;47.63;102930.78;6261968;23;20000;-86
2021/04/02 11:38:06;;;;;;;1.15;0.60;;;;;;;19.26;47.74;102926.44;6264672;22;20031;-81
2021/04/02 11:40:32;;;;;;;1.30;0.77;;;;;;;19.25;47.55;102929.03;6265271;22;20008;-89
2021/04/02 11:42:58;;;;;;;1.55;0.60;;;;;;;19.24;47.51;102930.75;6263222;23;20015;-81
2021/04/02 11:45:32;;;;;;;1.58;0.75;;;;;;;19.26;47.39;102933.41;6266474;22;20024;-84
2021/04/02 11:47:59;;;;;;;1.45;0.60;;;;;;;19.24;47.53;102927.28;6265343;22;20000;-86
2021/04/02 11:50:25;;;;;;;1.08;0.60;;;;;;;19.24;47.56;102935.97;6263435;23;20012;-83
2021/04/02 11:52:52;;;;;;;1.73;0.65;;;;;;;19.25;47.32;102934.25;6248147;22;20451;-82
2021/04/02 11:55:17;;;;;;;2.03;0.77;;;;;;;19.26;47.55;102943.84;6211534;23;20004;-81
2021/04/02 12:00:28;;;;;;;2.25;0.63;;;;;;;19.29;47.38;102939.56;6215624;23;20049;-88
2021/04/02 12:02:59;;;;;;;1.65;0.70;;;;;;;19.31;47.28;102937.88;6186121;23;20005;-80
2021/04/02 12:05:31;;;;;;;1.77;0.60;;;;;;;19.30;47.34;102925.66;6236261;23;19991;-89
2021/04/02 12:07:59;;;;;;;1.17;0.63;;;;;;;19.26;47.41;102931.66;6206535;23;20016;-79